Buoy 41910

sailwx.info

Track history (hours):
 
Tides and Currents Weather Stations Pressure Air Temp Water Temp Dewpoint Dewpoint Depression Visibility Wind Speed Wind Dir Waves Ship Positions

Drifting buoy 41910

Last reported at 2014-Sep-22 17:47 UTC. Time now 2014-Sep-22 20:17 UTC.
Position N 33°15' W 051°50'.

Water temperature 27.2 ° C

Date/timePositionNaut miles runAvg speedWind from/ knotsBaromVisibWave heightAir tempDewpointWater temp
2014-Sep-22 17:47N 33°15' W 051°50'0 0.0 27.2
2014-Sep-22 10:03N 33°15' W 051°50'0 8.1 27.2
2014-Sep-22 10:00N 33°15' W 051°49'115.2 27.2
2014-Sep-22 09:55N 33°15' W 051°51'0 0.0
2014-Sep-22 09:39N 33°15' W 051°51'0 0.0 27.2
2014-Sep-22 08:17N 33°15' W 051°51'0 0.0 27.2
2014-Sep-22 08:02N 33°15' W 051°51'0 0.0 27.2
2014-Sep-22 07:59N 33°15' W 051°51'6 0.6 27.2
2014-Sep-21 21:39N 33°09' W 051°49'0 0.0 27.3
2014-Sep-21 20:07N 33°09' W 051°49'1 3.1 27.3
2014-Sep-21 19:40N 33°09' W 051°47'0 0.0 27.3
2014-Sep-21 18:00N 33°09' W 051°47'1 0.1 27.3
2014-Sep-21 10:28N 33°08' W 051°48'0 3.8 27.3
2014-Sep-21 10:23N 33°07' W 051°48'1 1.1 27.3
2014-Sep-21 09:52N 33°07' W 051°48'0 0.0 27.3
2014-Sep-21 08:52N 33°07' W 051°48'0 0.0 27.3
2014-Sep-21 08:46N 33°07' W 051°48'714.1 27.3
2014-Sep-21 08:14N 32°60' W 051°45'0 0.0 27.3
2014-Sep-21 08:10N 32°60' W 051°45'0 0.0 27.3
2014-Sep-21 06:29N 32°60' W 051°45'0 0.0 27.3
2014-Sep-20 22:06N 32°60' W 051°45'0 0.0 27.7
2014-Sep-20 20:33N 32°60' W 051°45'0 0.1 28.4
2014-Sep-20 19:53N 32°60' W 051°45'1 5.0 28.8
2014-Sep-20 19:46N 32°59' W 051°46'1 0.7 28.8
2014-Sep-20 18:52N 32°60' W 051°46'0 0.0 28.8
2014-Sep-20 18:13N 32°60' W 051°46'250.3 28.6
2014-Sep-20 18:11N 33°00' W 051°48'0 0.0 28.6
2014-Sep-20 10:09N 33°00' W 051°48'0 3.0 27.2
2014-Sep-20 10:05N 33°00' W 051°48'117.1 27.2
2014-Sep-20 10:02N 32°59' W 051°48'0 0.0 27.2
2014-Sep-20 09:11N 32°59' W 051°48'0 8.8 27.2
2014-Sep-20 09:08N 32°59' W 051°48'0 0.0 27.2
2014-Sep-20 08:27N 32°59' W 051°48'111.3 27.2
2014-Sep-20 08:21N 32°58' W 051°49'0 0.0 27.2
2014-Sep-20 07:29N 32°58' W 051°49'0 0.0 27.2
2014-Sep-20 06:47N 32°58' W 051°49'6 0.6 27.2
2014-Sep-19 20:57N 32°52' W 051°48'1 0.7 27.5
2014-Sep-19 20:04N 32°51' W 051°48'1 0.8 27.6
2014-Sep-19 19:14N 32°51' W 051°48'0 0.0 27.6
2014-Sep-19 18:24N 32°51' W 051°48'3 0.4 27.6
2014-Sep-19 10:16N 32°48' W 051°50'0 0.0 27.4
2014-Sep-19 09:40N 32°48' W 051°50'1 5.4 27.4
2014-Sep-19 09:33N 32°48' W 051°50'0 0.0 27.4
2014-Sep-19 08:39N 32°48' W 051°50'2 2.1 27.4
2014-Sep-19 07:55N 32°46' W 051°50'0 0.0 27.4
2014-Sep-19 06:58N 32°46' W 051°50'5 0.5 27.4
2014-Sep-18 21:19N 32°41' W 051°49'1 0.6 27.5
2014-Sep-18 20:16N 32°41' W 051°49'0 0.2 27.5
2014-Sep-18 19:41N 32°41' W 051°49'016.2 27.5
2014-Sep-18 19:40N 32°41' W 051°49'0 0.0 27.5
2014-Sep-18 18:34N 32°41' W 051°49'3 0.4 27.5
2014-Sep-18 10:05N 32°38' W 051°52'1 6.0 27.2
2014-Sep-18 09:57N 32°38' W 051°52'0 0.0 27.1
2014-Sep-18 08:53N 32°38' W 051°52'1 5.8 27.1
2014-Sep-18 08:43N 32°37' W 051°52'0 0.0 27.1
2014-Sep-18 07:08N 32°37' W 051°52'340.3 27.1
2014-Sep-18 07:04N 32°34' W 051°54'0 0.0 27.1
2014-Sep-17 21:44N 32°34' W 051°54'1 0.5 27.1
2014-Sep-17 20:27N 32°34' W 051°55'0 1.2 27.1
2014-Sep-17 20:06N 32°34' W 051°55'0 4.7 27.1
2014-Sep-17 20:05N 32°34' W 051°55'0 0.0 27.1
2014-Sep-17 18:45N 32°34' W 051°55'510.8 27.1
2014-Sep-17 18:20N 32°34' W 052°00'0 0.0
2014-Sep-17 10:27N 32°34' W 052°00'116.0 27.1
2014-Sep-17 10:22N 32°35' W 052°02'0 0.0 27.1
2014-Sep-17 09:00N 32°35' W 052°02'112.0 27.1
2014-Sep-17 08:54N 32°35' W 052°03'0 0.0 27.1
2014-Sep-17 08:42N 32°35' W 052°03'0 0.0 27.1
2014-Sep-17 07:21N 32°35' W 052°03'771.7 27.2
2014-Sep-17 07:15N 32°30' W 052°10'0 0.0 27.2
2014-Sep-16 22:08N 32°30' W 052°10'0 0.0 27.4
2014-Sep-16 20:31N 32°30' W 052°10'0 0.0 27.4
2014-Sep-16 20:30N 32°30' W 052°10'0 0.0 27.4
2014-Sep-16 18:55N 32°30' W 052°10'0 1.8 27.4
2014-Sep-16 18:48N 32°30' W 052°10'2 0.2 27.4
2014-Sep-16 10:49N 32°29' W 052°12'1 0.8 27.4
2014-Sep-16 09:05N 32°30' W 052°14'0 0.0 27.5
2014-Sep-16 07:32N 32°30' W 052°14'352.8 27.5
2014-Sep-16 07:29N 32°28' W 052°15'0 0.0 27.5
2014-Sep-15 20:54N 32°28' W 052°15'0 1.8 27.7
2014-Sep-15 20:49N 32°28' W 052°15'1 7.3 27.7
2014-Sep-15 20:44N 32°28' W 052°16'0 0.0 27.7
2014-Sep-15 19:05N 32°28' W 052°16'3 0.3 27.8
2014-Sep-15 09:35N 32°30' W 052°19'0 5.6
2014-Sep-15 09:32N 32°29' W 052°19'0 0.0 27.7
2014-Sep-15 09:23N 32°29' W 052°19'0 4.2 27.7
2014-Sep-15 09:17N 32°29' W 052°19'0 0.0 27.7
2014-Sep-15 07:53N 32°29' W 052°19'0 0.7 27.7
2014-Sep-15 07:41N 32°29' W 052°19'1 9.0 27.7
2014-Sep-15 07:36N 32°30' W 052°20'0 0.0 27.7
2014-Sep-14 21:18N 32°30' W 052°20'1 0.3 27.9
2014-Sep-14 19:21N 32°30' W 052°20'1 0.5 28.1
2014-Sep-14 17:38N 32°30' W 052°19'3 0.4 28.0
2014-Sep-14 10:01N 32°32' W 052°22'0 3.0 27.7
2014-Sep-14 09:57N 32°32' W 052°22'0 7.1 27.7
2014-Sep-14 09:54N 32°32' W 052°22'0 0.0 27.7
2014-Sep-14 09:33N 32°32' W 052°22'0 3.8 27.7
2014-Sep-14 09:28N 32°32' W 052°22'0 0.0 27.7
2014-Sep-14 08:19N 32°32' W 052°22'0 0.5 27.6
2014-Sep-14 07:52N 32°32' W 052°22'332.2 27.6
2014-Sep-14 07:46N 32°35' W 052°25'1 0.1 27.6
2014-Sep-13 21:43N 32°35' W 052°26'0 0.0 28.2
2014-Sep-13 21:06N 32°35' W 052°26'0 0.0 28.3
2014-Sep-13 20:06N 32°35' W 052°26'0 0.0 28.2
2014-Sep-13 19:30N 32°35' W 052°26'3 2.5 28.3
2014-Sep-13 18:21N 32°38' W 052°26'0 0.0 28.5
2014-Sep-13 17:48N 32°38' W 052°26'0 0.0 28.6
2014-Sep-13 10:25N 32°38' W 052°26'1 0.8 27.8
2014-Sep-13 09:49N 32°38' W 052°27'0 4.7 27.8
2014-Sep-13 09:46N 32°38' W 052°26'1 9.7 27.8
2014-Sep-13 09:40N 32°39' W 052°27'0 0.1 27.8
2014-Sep-13 08:01N 32°39' W 052°27'2 0.2 27.8
2014-Sep-12 22:07N 32°40' W 052°29'0 0.0 28.2
2014-Sep-12 20:29N 32°40' W 052°29'0 0.0 28.4
2014-Sep-12 19:41N 32°40' W 052°29'4 4.3 28.5
2014-Sep-12 18:45N 32°43' W 052°32'0 0.0 28.4
2014-Sep-12 17:58N 32°43' W 052°32'   28.4
Track history (hours):
 
Tides and Currents Weather Stations Pressure Air Temp Water Temp Dewpoint Dewpoint Depression Visibility Wind Speed Wind Dir Waves Ship Positions

Drifting buoy 41910

Last reported at 2014-Sep-22 17:47 UTC. Time now 2014-Sep-22 20:17 UTC.
Position N 33°15' W 051°50'.

Water temperature 27.2 ° C

Date/timePositionNaut miles runAvg speedWind from/ knotsBaromVisibWave heightAir tempDewpointWater temp
2014-Sep-22 17:47N 33°15' W 051°50'0 0.0 27.2
2014-Sep-22 10:03N 33°15' W 051°50'0 8.1 27.2
2014-Sep-22 10:00N 33°15' W 051°49'115.2 27.2
2014-Sep-22 09:55N 33°15' W 051°51'0 0.0
2014-Sep-22 09:39N 33°15' W 051°51'0 0.0 27.2
2014-Sep-22 08:17N 33°15' W 051°51'0 0.0 27.2
2014-Sep-22 08:02N 33°15' W 051°51'0 0.0 27.2
2014-Sep-22 07:59N 33°15' W 051°51'6 0.6 27.2
2014-Sep-21 21:39N 33°09' W 051°49'0 0.0 27.3
2014-Sep-21 20:07N 33°09' W 051°49'1 3.1 27.3
2014-Sep-21 19:40N 33°09' W 051°47'0 0.0 27.3
2014-Sep-21 18:00N 33°09' W 051°47'1 0.1 27.3
2014-Sep-21 10:28N 33°08' W 051°48'0 3.8 27.3
2014-Sep-21 10:23N 33°07' W 051°48'1 1.1 27.3
2014-Sep-21 09:52N 33°07' W 051°48'0 0.0 27.3
2014-Sep-21 08:52N 33°07' W 051°48'0 0.0 27.3
2014-Sep-21 08:46N 33°07' W 051°48'714.1 27.3
2014-Sep-21 08:14N 32°60' W 051°45'0 0.0 27.3
2014-Sep-21 08:10N 32°60' W 051°45'0 0.0 27.3
2014-Sep-21 06:29N 32°60' W 051°45'0 0.0 27.3
2014-Sep-20 22:06N 32°60' W 051°45'0 0.0 27.7
2014-Sep-20 20:33N 32°60' W 051°45'0 0.1 28.4
2014-Sep-20 19:53N 32°60' W 051°45'1 5.0 28.8
2014-Sep-20 19:46N 32°59' W 051°46'1 0.7 28.8
2014-Sep-20 18:52N 32°60' W 051°46'0 0.0 28.8
2014-Sep-20 18:13N 32°60' W 051°46'250.3 28.6
2014-Sep-20 18:11N 33°00' W 051°48'0 0.0 28.6
2014-Sep-20 10:09N 33°00' W 051°48'0 3.0 27.2
2014-Sep-20 10:05N 33°00' W 051°48'117.1 27.2
2014-Sep-20 10:02N 32°59' W 051°48'0 0.0 27.2
2014-Sep-20 09:11N 32°59' W 051°48'0 8.8 27.2
2014-Sep-20 09:08N 32°59' W 051°48'0 0.0 27.2
2014-Sep-20 08:27N 32°59' W 051°48'111.3 27.2
2014-Sep-20 08:21N 32°58' W 051°49'0 0.0 27.2
2014-Sep-20 07:29N 32°58' W 051°49'0 0.0 27.2
2014-Sep-20 06:47N 32°58' W 051°49'6 0.6 27.2
2014-Sep-19 20:57N 32°52' W 051°48'1 0.7 27.5
2014-Sep-19 20:04N 32°51' W 051°48'1 0.8 27.6
2014-Sep-19 19:14N 32°51' W 051°48'0 0.0 27.6
2014-Sep-19 18:24N 32°51' W 051°48'3 0.4 27.6
2014-Sep-19 10:16N 32°48' W 051°50'0 0.0 27.4
2014-Sep-19 09:40N 32°48' W 051°50'1 5.4 27.4
2014-Sep-19 09:33N 32°48' W 051°50'0 0.0 27.4
2014-Sep-19 08:39N 32°48' W 051°50'2 2.1 27.4
2014-Sep-19 07:55N 32°46' W 051°50'0 0.0 27.4
2014-Sep-19 06:58N 32°46' W 051°50'5 0.5 27.4
2014-Sep-18 21:19N 32°41' W 051°49'1 0.6 27.5
2014-Sep-18 20:16N 32°41' W 051°49'0 0.2 27.5
2014-Sep-18 19:41N 32°41' W 051°49'016.2 27.5
2014-Sep-18 19:40N 32°41' W 051°49'0 0.0 27.5
2014-Sep-18 18:34N 32°41' W 051°49'3 0.4 27.5
2014-Sep-18 10:05N 32°38' W 051°52'1 6.0 27.2
2014-Sep-18 09:57N 32°38' W 051°52'0 0.0 27.1
2014-Sep-18 08:53N 32°38' W 051°52'1 5.8 27.1
2014-Sep-18 08:43N 32°37' W 051°52'0 0.0 27.1
2014-Sep-18 07:08N 32°37' W 051°52'340.3 27.1
2014-Sep-18 07:04N 32°34' W 051°54'0 0.0 27.1
2014-Sep-17 21:44N 32°34' W 051°54'1 0.5 27.1
2014-Sep-17 20:27N 32°34' W 051°55'0 1.2 27.1
2014-Sep-17 20:06N 32°34' W 051°55'0 4.7 27.1
2014-Sep-17 20:05N 32°34' W 051°55'0 0.0 27.1
2014-Sep-17 18:45N 32°34' W 051°55'510.8 27.1
2014-Sep-17 18:20N 32°34' W 052°00'0 0.0
2014-Sep-17 10:27N 32°34' W 052°00'116.0 27.1
2014-Sep-17 10:22N 32°35' W 052°02'0 0.0 27.1
2014-Sep-17 09:00N 32°35' W 052°02'112.0 27.1
2014-Sep-17 08:54N 32°35' W 052°03'0 0.0 27.1
2014-Sep-17 08:42N 32°35' W 052°03'0 0.0 27.1
2014-Sep-17 07:21N 32°35' W 052°03'771.7 27.2
2014-Sep-17 07:15N 32°30' W 052°10'0 0.0 27.2
2014-Sep-16 22:08N 32°30' W 052°10'0 0.0 27.4
2014-Sep-16 20:31N 32°30' W 052°10'0 0.0 27.4
2014-Sep-16 20:30N 32°30' W 052°10'0 0.0 27.4
2014-Sep-16 18:55N 32°30' W 052°10'0 1.8 27.4
2014-Sep-16 18:48N 32°30' W 052°10'2 0.2 27.4
2014-Sep-16 10:49N 32°29' W 052°12'1 0.8 27.4
2014-Sep-16 09:05N 32°30' W 052°14'0 0.0 27.5
2014-Sep-16 07:32N 32°30' W 052°14'352.8 27.5
2014-Sep-16 07:29N 32°28' W 052°15'0 0.0 27.5
2014-Sep-15 20:54N 32°28' W 052°15'0 1.8 27.7
2014-Sep-15 20:49N 32°28' W 052°15'1 7.3 27.7
2014-Sep-15 20:44N 32°28' W 052°16'0 0.0 27.7
2014-Sep-15 19:05N 32°28' W 052°16'3 0.3 27.8
2014-Sep-15 09:35N 32°30' W 052°19'0 5.6
2014-Sep-15 09:32N 32°29' W 052°19'0 0.0 27.7
2014-Sep-15 09:23N 32°29' W 052°19'0 4.2 27.7
2014-Sep-15 09:17N 32°29' W 052°19'0 0.0 27.7
2014-Sep-15 07:53N 32°29' W 052°19'0 0.7 27.7
2014-Sep-15 07:41N 32°29' W 052°19'1 9.0 27.7
2014-Sep-15 07:36N 32°30' W 052°20'0 0.0 27.7
2014-Sep-14 21:18N 32°30' W 052°20'1 0.3 27.9
2014-Sep-14 19:21N 32°30' W 052°20'1 0.5 28.1
2014-Sep-14 17:38N 32°30' W 052°19'3 0.4 28.0
2014-Sep-14 10:01N 32°32' W 052°22'0 3.0 27.7
2014-Sep-14 09:57N 32°32' W 052°22'0 7.1 27.7
2014-Sep-14 09:54N 32°32' W 052°22'0 0.0 27.7
2014-Sep-14 09:33N 32°32' W 052°22'0 3.8 27.7
2014-Sep-14 09:28N 32°32' W 052°22'0 0.0 27.7
2014-Sep-14 08:19N 32°32' W 052°22'0 0.5 27.6
2014-Sep-14 07:52N 32°32' W 052°22'332.2 27.6
2014-Sep-14 07:46N 32°35' W 052°25'1 0.1 27.6
2014-Sep-13 21:43N 32°35' W 052°26'0 0.0 28.2
2014-Sep-13 21:06N 32°35' W 052°26'0 0.0 28.3
2014-Sep-13 20:06N 32°35' W 052°26'0 0.0 28.2
2014-Sep-13 19:30N 32°35' W 052°26'3 2.5 28.3
2014-Sep-13 18:21N 32°38' W 052°26'0 0.0 28.5
2014-Sep-13 17:48N 32°38' W 052°26'0 0.0 28.6
2014-Sep-13 10:25N 32°38' W 052°26'1 0.8 27.8
2014-Sep-13 09:49N 32°38' W 052°27'0 4.7 27.8
2014-Sep-13 09:46N 32°38' W 052°26'1 9.7 27.8
2014-Sep-13 09:40N 32°39' W 052°27'0 0.1 27.8
2014-Sep-13 08:01N 32°39' W 052°27'2 0.2 27.8
2014-Sep-12 22:07N 32°40' W 052°29'0 0.0 28.2
2014-Sep-12 20:29N 32°40' W 052°29'0 0.0 28.4
2014-Sep-12 19:41N 32°40' W 052°29'4 4.3 28.5
2014-Sep-12 18:45N 32°43' W 052°32'0 0.0 28.4
2014-Sep-12 17:58N 32°43' W 052°32'   28.4

Dump ship's entire track history